Terminal Aerodrome Forecast
Issued by NWS

Home | Current Version | Previous Version | Text Only | Print | Product List | Glossary On
Versions: 1 2 3 4 5 6 7 8 9 10 11 12
000
FTUS45 KABQ 231100
TAFFMN
TAF
KFMN 231120Z 2312/2412 10007KT P6SM SCT080
     FM231800 26010KT P6SM SCT090
     FM240200 32008KT P6SM SCT090
     FM240700 09005KT P6SM SCT090=

USA.gov is the U.S. government's official web portal to all federal, state and local government web resources and services.